Leominster, United Kingdom
Current Conditions -  °F | °C
As of 5:20 PM on Wednesday 26 Nov 2014 (Local Time) from EGBJ Reporting Station
Haze Haze  
Wind Chill: 46°   Ceiling: 300
Heat Index: 46°   Visibility: 0.68mi
Dew Point: 46°   Wind: 2mph
Humidity: 100%   Direction: 330°NNW
Pressure: 29.8"   Gusts: NA
Location:  52.23°N, 2.74°W
Report Text: EGBJ 261720Z 33002KT 1100 R27/0775 BR BKN003 OVC005 08/08 Q1009
Loading
Personal Weather Stations






























Interactive Weather Map New forecast layout! Learn more

10-Day Weather Forecast

Advertisements
Track Severe Weather on mobile